sensor_id;sensor_type;location;lat;lon;timestamp;P1;durP1;ratioP1;P2;durP2;ratioP2
13443;SDS011;6794;59.218;18.218;2024-02-28T00:00:31;7.37;;;5.67;;
13443;SDS011;6794;59.218;18.218;2024-02-28T00:02:57;8.25;;;6.82;;
13443;SDS011;6794;59.218;18.218;2024-02-28T00:05:23;7.97;;;6.13;;
13443;SDS011;6794;59.218;18.218;2024-02-28T00:07:49;7.43;;;5.47;;
13443;SDS011;6794;59.218;18.218;2024-02-28T00:10:17;7.53;;;5.70;;
13443;SDS011;6794;59.218;18.218;2024-02-28T00:12:44;7.43;;;5.47;;
13443;SDS011;6794;59.218;18.218;2024-02-28T00:15:10;7.23;;;5.83;;
13443;SDS011;6794;59.218;18.218;2024-02-28T00:17:39;6.33;;;5.37;;
13443;SDS011;6794;59.218;18.218;2024-02-28T00:20:06;6.50;;;4.77;;
13443;SDS011;6794;59.218;18.218;2024-02-28T00:22:32;6.97;;;5.40;;
13443;SDS011;6794;59.218;18.218;2024-02-28T00:24:58;5.97;;;5.03;;
13443;SDS011;6794;59.218;18.218;2024-02-28T00:27:26;7.27;;;5.07;;
13443;SDS011;6794;59.218;18.218;2024-02-28T00:29:52;6.47;;;5.47;;
13443;SDS011;6794;59.218;18.218;2024-02-28T00:32:18;6.87;;;5.17;;
13443;SDS011;6794;59.218;18.218;2024-02-28T00:34:44;8.07;;;5.03;;
13443;SDS011;6794;59.218;18.218;2024-02-28T00:37:10;5.70;;;4.63;;
13443;SDS011;6794;59.218;18.218;2024-02-28T00:39:36;5.93;;;4.77;;
13443;SDS011;6794;59.218;18.218;2024-02-28T00:42:02;6.53;;;5.23;;
13443;SDS011;6794;59.218;18.218;2024-02-28T00:44:28;6.50;;;5.07;;
13443;SDS011;6794;59.218;18.218;2024-02-28T00:46:54;5.23;;;4.30;;
13443;SDS011;6794;59.218;18.218;2024-02-28T00:49:21;7.60;;;4.70;;
13443;SDS011;6794;59.218;18.218;2024-02-28T00:51:47;6.00;;;4.40;;
13443;SDS011;6794;59.218;18.218;2024-02-28T00:54:13;4.90;;;4.13;;
13443;SDS011;6794;59.218;18.218;2024-02-28T00:56:39;6.87;;;4.70;;
13443;SDS011;6794;59.218;18.218;2024-02-28T00:59:05;5.73;;;4.20;;
13443;SDS011;6794;59.218;18.218;2024-02-28T01:01:35;6.28;;;5.05;;
13443;SDS011;6794;59.218;18.218;2024-02-28T01:04:01;5.93;;;4.93;;
13443;SDS011;6794;59.218;18.218;2024-02-28T01:06:27;6.23;;;4.97;;
13443;SDS011;6794;59.218;18.218;2024-02-28T01:08:53;7.03;;;5.20;;
13443;SDS011;6794;59.218;18.218;2024-02-28T01:11:19;8.47;;;5.90;;
13443;SDS011;6794;59.218;18.218;2024-02-28T01:13:45;8.50;;;5.17;;
13443;SDS011;6794;59.218;18.218;2024-02-28T01:16:11;8.83;;;5.97;;
13443;SDS011;6794;59.218;18.218;2024-02-28T01:18:37;6.87;;;5.20;;
13443;SDS011;6794;59.218;18.218;2024-02-28T01:21:03;7.30;;;5.17;;
13443;SDS011;6794;59.218;18.218;2024-02-28T01:23:30;6.10;;;4.80;;
13443;SDS011;6794;59.218;18.218;2024-02-28T01:25:56;6.53;;;5.07;;
13443;SDS011;6794;59.218;18.218;2024-02-28T01:28:22;6.17;;;4.63;;
13443;SDS011;6794;59.218;18.218;2024-02-28T01:30:48;7.60;;;5.70;;
13443;SDS011;6794;59.218;18.218;2024-02-28T01:33:14;7.45;;;6.28;;
13443;SDS011;6794;59.218;18.218;2024-02-28T01:35:40;7.40;;;5.20;;
13443;SDS011;6794;59.218;18.218;2024-02-28T01:38:06;6.80;;;4.90;;
13443;SDS011;6794;59.218;18.218;2024-02-28T01:40:32;6.67;;;4.70;;
13443;SDS011;6794;59.218;18.218;2024-02-28T01:43:02;5.23;;;4.03;;
13443;SDS011;6794;59.218;18.218;2024-02-28T01:45:29;5.73;;;4.40;;
13443;SDS011;6794;59.218;18.218;2024-02-28T01:47:55;6.67;;;4.23;;
13443;SDS011;6794;59.218;18.218;2024-02-28T01:50:21;5.87;;;3.80;;
13443;SDS011;6794;59.218;18.218;2024-02-28T01:52:47;4.07;;;3.40;;
13443;SDS011;6794;59.218;18.218;2024-02-28T01:55:13;6.07;;;3.83;;
13443;SDS011;6794;59.218;18.218;2024-02-28T01:57:39;5.23;;;3.57;;
13443;SDS011;6794;59.218;18.218;2024-02-28T02:00:06;4.10;;;3.67;;
13443;SDS011;6794;59.218;18.218;2024-02-28T02:02:35;5.50;;;4.90;;
13443;SDS011;6794;59.218;18.218;2024-02-28T02:05:02;4.83;;;3.60;;
13443;SDS011;6794;59.218;18.218;2024-02-28T02:07:28;4.50;;;3.50;;
13443;SDS011;6794;59.218;18.218;2024-02-28T02:09:54;3.57;;;3.00;;
13443;SDS011;6794;59.218;18.218;2024-02-28T02:12:21;4.63;;;3.10;;
13443;SDS011;6794;59.218;18.218;2024-02-28T02:14:47;4.87;;;3.30;;
13443;SDS011;6794;59.218;18.218;2024-02-28T02:17:14;4.30;;;3.53;;
13443;SDS011;6794;59.218;18.218;2024-02-28T02:19:40;4.13;;;3.00;;
13443;SDS011;6794;59.218;18.218;2024-02-28T02:22:06;3.87;;;3.13;;
13443;SDS011;6794;59.218;18.218;2024-02-28T02:24:34;4.43;;;3.83;;
13443;SDS011;6794;59.218;18.218;2024-02-28T02:27:01;4.17;;;3.17;;
13443;SDS011;6794;59.218;18.218;2024-02-28T02:29:30;4.10;;;3.03;;
13443;SDS011;6794;59.218;18.218;2024-02-28T02:31:56;4.78;;;4.10;;
13443;SDS011;6794;59.218;18.218;2024-02-28T02:34:22;4.97;;;3.20;;
13443;SDS011;6794;59.218;18.218;2024-02-28T02:36:49;3.83;;;3.30;;
13443;SDS011;6794;59.218;18.218;2024-02-28T02:39:15;3.83;;;3.00;;
13443;SDS011;6794;59.218;18.218;2024-02-28T02:41:41;4.20;;;2.90;;
13443;SDS011;6794;59.218;18.218;2024-02-28T02:44:07;4.20;;;2.97;;
13443;SDS011;6794;59.218;18.218;2024-02-28T02:46:33;4.60;;;3.27;;
13443;SDS011;6794;59.218;18.218;2024-02-28T02:48:59;4.33;;;3.10;;
13443;SDS011;6794;59.218;18.218;2024-02-28T02:51:25;6.53;;;3.70;;
13443;SDS011;6794;59.218;18.218;2024-02-28T02:53:51;4.93;;;3.40;;
13443;SDS011;6794;59.218;18.218;2024-02-28T02:56:18;3.50;;;3.20;;
13443;SDS011;6794;59.218;18.218;2024-02-28T02:58:44;5.80;;;3.40;;
13443;SDS011;6794;59.218;18.218;2024-02-28T03:01:10;4.72;;;4.22;;
13443;SDS011;6794;59.218;18.218;2024-02-28T03:03:36;4.00;;;3.60;;
13443;SDS011;6794;59.218;18.218;2024-02-28T03:06:03;5.37;;;3.37;;
13443;SDS011;6794;59.218;18.218;2024-02-28T03:08:32;3.30;;;2.97;;
13443;SDS011;6794;59.218;18.218;2024-02-28T03:10:58;3.40;;;3.10;;
13443;SDS011;6794;59.218;18.218;2024-02-28T03:13:24;3.87;;;3.30;;
13443;SDS011;6794;59.218;18.218;2024-02-28T03:15:50;3.90;;;3.50;;
13443;SDS011;6794;59.218;18.218;2024-02-28T03:18:16;3.27;;;2.97;;
13443;SDS011;6794;59.218;18.218;2024-02-28T03:20:43;3.17;;;2.87;;
13443;SDS011;6794;59.218;18.218;2024-02-28T03:23:09;3.23;;;2.93;;
13443;SDS011;6794;59.218;18.218;2024-02-28T03:25:35;3.20;;;2.80;;
13443;SDS011;6794;59.218;18.218;2024-02-28T03:28:02;4.70;;;2.90;;
13443;SDS011;6794;59.218;18.218;2024-02-28T03:30:28;3.38;;;3.00;;
13443;SDS011;6794;59.218;18.218;2024-02-28T03:32:54;3.50;;;2.90;;
13443;SDS011;6794;59.218;18.218;2024-02-28T03:35:20;3.23;;;2.60;;
13443;SDS011;6794;59.218;18.218;2024-02-28T03:37:46;3.53;;;2.80;;
13443;SDS011;6794;59.218;18.218;2024-02-28T03:40:12;2.80;;;2.60;;
13443;SDS011;6794;59.218;18.218;2024-02-28T03:42:39;4.83;;;2.80;;
13443;SDS011;6794;59.218;18.218;2024-02-28T03:45:06;4.37;;;2.90;;
13443;SDS011;6794;59.218;18.218;2024-02-28T03:47:32;3.80;;;2.93;;
13443;SDS011;6794;59.218;18.218;2024-02-28T03:49:58;3.50;;;2.70;;
13443;SDS011;6794;59.218;18.218;2024-02-28T03:52:24;4.27;;;3.23;;
13443;SDS011;6794;59.218;18.218;2024-02-28T03:54:50;4.23;;;3.07;;
13443;SDS011;6794;59.218;18.218;2024-02-28T03:57:17;3.50;;;2.60;;
13443;SDS011;6794;59.218;18.218;2024-02-28T03:59:43;3.07;;;2.77;;
13443;SDS011;6794;59.218;18.218;2024-02-28T04:02:09;5.03;;;3.30;;
13443;SDS011;6794;59.218;18.218;2024-02-28T04:04:35;4.30;;;3.13;;
13443;SDS011;6794;59.218;18.218;2024-02-28T04:07:01;3.43;;;2.93;;
13443;SDS011;6794;59.218;18.218;2024-02-28T04:09:27;3.93;;;3.47;;
13443;SDS011;6794;59.218;18.218;2024-02-28T04:11:53;3.77;;;3.20;;
13443;SDS011;6794;59.218;18.218;2024-02-28T04:14:19;3.93;;;3.03;;
13443;SDS011;6794;59.218;18.218;2024-02-28T04:16:45;3.43;;;2.80;;
13443;SDS011;6794;59.218;18.218;2024-02-28T04:19:12;3.03;;;2.70;;
13443;SDS011;6794;59.218;18.218;2024-02-28T04:21:38;3.63;;;2.60;;
13443;SDS011;6794;59.218;18.218;2024-02-28T04:24:05;3.50;;;2.80;;
13443;SDS011;6794;59.218;18.218;2024-02-28T04:26:32;3.50;;;2.67;;
13443;SDS011;6794;59.218;18.218;2024-02-28T04:28:58;3.37;;;3.00;;
13443;SDS011;6794;59.218;18.218;2024-02-28T04:31:26;5.40;;;4.80;;
13443;SDS011;6794;59.218;18.218;2024-02-28T04:33:52;3.70;;;3.10;;
13443;SDS011;6794;59.218;18.218;2024-02-28T04:36:18;3.97;;;3.20;;
13443;SDS011;6794;59.218;18.218;2024-02-28T04:38:44;3.30;;;3.00;;
13443;SDS011;6794;59.218;18.218;2024-02-28T04:41:10;5.30;;;3.10;;
13443;SDS011;6794;59.218;18.218;2024-02-28T04:43:36;4.63;;;3.10;;
13443;SDS011;6794;59.218;18.218;2024-02-28T04:46:02;4.10;;;3.03;;
13443;SDS011;6794;59.218;18.218;2024-02-28T04:48:29;4.70;;;3.40;;
13443;SDS011;6794;59.218;18.218;2024-02-28T04:50:55;3.43;;;3.13;;
13443;SDS011;6794;59.218;18.218;2024-02-28T04:53:21;3.43;;;3.07;;
13443;SDS011;6794;59.218;18.218;2024-02-28T04:55:47;3.23;;;2.93;;
13443;SDS011;6794;59.218;18.218;2024-02-28T04:58:13;4.23;;;3.23;;
13443;SDS011;6794;59.218;18.218;2024-02-28T05:00:39;5.33;;;4.33;;
13443;SDS011;6794;59.218;18.218;2024-02-28T05:03:05;3.63;;;3.20;;
13443;SDS011;6794;59.218;18.218;2024-02-28T05:05:31;3.80;;;3.10;;
13443;SDS011;6794;59.218;18.218;2024-02-28T05:07:57;3.30;;;2.67;;
13443;SDS011;6794;59.218;18.218;2024-02-28T05:10:23;4.70;;;3.37;;
13443;SDS011;6794;59.218;18.218;2024-02-28T05:12:49;3.53;;;3.07;;
13443;SDS011;6794;59.218;18.218;2024-02-28T05:15:15;4.00;;;3.10;;
13443;SDS011;6794;59.218;18.218;2024-02-28T05:17:42;3.77;;;3.30;;
13443;SDS011;6794;59.218;18.218;2024-02-28T05:20:08;8.07;;;3.00;;
13443;SDS011;6794;59.218;18.218;2024-02-28T05:22:34;3.90;;;2.40;;
13443;SDS011;6794;59.218;18.218;2024-02-28T05:25:00;3.73;;;3.33;;
13443;SDS011;6794;59.218;18.218;2024-02-28T05:27:26;3.40;;;2.57;;
13443;SDS011;6794;59.218;18.218;2024-02-28T05:29:52;5.50;;;4.30;;
13443;SDS011;6794;59.218;18.218;2024-02-28T05:32:18;3.83;;;3.23;;
13443;SDS011;6794;59.218;18.218;2024-02-28T05:34:46;4.20;;;3.47;;
13443;SDS011;6794;59.218;18.218;2024-02-28T05:37:12;4.43;;;3.33;;
13443;SDS011;6794;59.218;18.218;2024-02-28T05:39:38;3.77;;;3.20;;
13443;SDS011;6794;59.218;18.218;2024-02-28T05:42:04;3.70;;;3.30;;
13443;SDS011;6794;59.218;18.218;2024-02-28T05:44:30;3.30;;;3.00;;
13443;SDS011;6794;59.218;18.218;2024-02-28T05:46:56;3.90;;;3.07;;
13443;SDS011;6794;59.218;18.218;2024-02-28T05:49:22;4.60;;;3.87;;
13443;SDS011;6794;59.218;18.218;2024-02-28T05:51:48;6.03;;;3.30;;
13443;SDS011;6794;59.218;18.218;2024-02-28T05:54:14;4.50;;;3.37;;
13443;SDS011;6794;59.218;18.218;2024-02-28T05:56:40;3.93;;;3.23;;
13443;SDS011;6794;59.218;18.218;2024-02-28T05:59:06;4.00;;;3.25;;
13443;SDS011;6794;59.218;18.218;2024-02-28T06:01:33;7.50;;;5.32;;
13443;SDS011;6794;59.218;18.218;2024-02-28T06:03:59;5.00;;;3.40;;
13443;SDS011;6794;59.218;18.218;2024-02-28T06:06:25;5.00;;;3.77;;
13443;SDS011;6794;59.218;18.218;2024-02-28T06:08:51;4.43;;;3.67;;
13443;SDS011;6794;59.218;18.218;2024-02-28T06:11:17;4.77;;;3.70;;
13443;SDS011;6794;59.218;18.218;2024-02-28T06:13:43;4.43;;;3.53;;
13443;SDS011;6794;59.218;18.218;2024-02-28T06:16:15;6.40;;;3.40;;
13443;SDS011;6794;59.218;18.218;2024-02-28T06:18:43;4.90;;;3.80;;
13443;SDS011;6794;59.218;18.218;2024-02-28T06:21:09;7.23;;;3.80;;
13443;SDS011;6794;59.218;18.218;2024-02-28T06:23:35;4.87;;;3.70;;
13443;SDS011;6794;59.218;18.218;2024-02-28T06:26:01;5.90;;;3.70;;
13443;SDS011;6794;59.218;18.218;2024-02-28T06:28:27;3.80;;;3.37;;
13443;SDS011;6794;59.218;18.218;2024-02-28T06:30:53;5.80;;;5.20;;
13443;SDS011;6794;59.218;18.218;2024-02-28T06:33:19;4.63;;;3.83;;
13443;SDS011;6794;59.218;18.218;2024-02-28T06:35:45;5.63;;;3.57;;
13443;SDS011;6794;59.218;18.218;2024-02-28T06:38:11;4.73;;;3.50;;
13443;SDS011;6794;59.218;18.218;2024-02-28T06:40:37;5.07;;;3.57;;
13443;SDS011;6794;59.218;18.218;2024-02-28T06:43:03;4.57;;;3.87;;
13443;SDS011;6794;59.218;18.218;2024-02-28T06:45:30;5.73;;;3.20;;
13443;SDS011;6794;59.218;18.218;2024-02-28T06:47:56;3.97;;;3.27;;
13443;SDS011;6794;59.218;18.218;2024-02-28T06:50:23;5.50;;;3.17;;
13443;SDS011;6794;59.218;18.218;2024-02-28T06:52:49;5.40;;;3.37;;
13443;SDS011;6794;59.218;18.218;2024-02-28T06:55:15;3.70;;;3.20;;
13443;SDS011;6794;59.218;18.218;2024-02-28T06:57:41;4.23;;;3.50;;
13443;SDS011;6794;59.218;18.218;2024-02-28T07:00:09;3.30;;;3.00;;
13443;SDS011;6794;59.218;18.218;2024-02-28T07:02:43;4.37;;;3.00;;
13443;SDS011;6794;59.218;18.218;2024-02-28T07:05:10;4.10;;;3.10;;
13443;SDS011;6794;59.218;18.218;2024-02-28T07:07:36;3.93;;;3.23;;
13443;SDS011;6794;59.218;18.218;2024-02-28T07:10:03;4.50;;;2.90;;
13443;SDS011;6794;59.218;18.218;2024-02-28T07:12:29;2.70;;;2.50;;
13443;SDS011;6794;59.218;18.218;2024-02-28T07:14:55;3.40;;;3.10;;
13443;SDS011;6794;59.218;18.218;2024-02-28T07:17:21;3.10;;;2.80;;
13443;SDS011;6794;59.218;18.218;2024-02-28T07:19:48;3.20;;;2.73;;
13443;SDS011;6794;59.218;18.218;2024-02-28T07:22:14;4.13;;;2.57;;
13443;SDS011;6794;59.218;18.218;2024-02-28T07:24:40;4.17;;;2.77;;
13443;SDS011;6794;59.218;18.218;2024-02-28T07:27:06;5.17;;;2.60;;
13443;SDS011;6794;59.218;18.218;2024-02-28T07:29:32;3.53;;;2.90;;
13443;SDS011;6794;59.218;18.218;2024-02-28T07:31:59;3.40;;;2.90;;
13443;SDS011;6794;59.218;18.218;2024-02-28T07:34:27;3.53;;;2.73;;
13443;SDS011;6794;59.218;18.218;2024-02-28T07:36:53;3.60;;;2.27;;
13443;SDS011;6794;59.218;18.218;2024-02-28T07:39:19;3.23;;;2.73;;
13443;SDS011;6794;59.218;18.218;2024-02-28T07:41:46;3.20;;;2.57;;
13443;SDS011;6794;59.218;18.218;2024-02-28T07:44:12;2.93;;;2.63;;
13443;SDS011;6794;59.218;18.218;2024-02-28T07:46:39;3.10;;;2.80;;
13443;SDS011;6794;59.218;18.218;2024-02-28T07:49:06;4.90;;;2.90;;
13443;SDS011;6794;59.218;18.218;2024-02-28T07:51:32;3.33;;;2.50;;
13443;SDS011;6794;59.218;18.218;2024-02-28T07:53:58;3.73;;;2.60;;
13443;SDS011;6794;59.218;18.218;2024-02-28T07:56:24;3.13;;;2.50;;
13443;SDS011;6794;59.218;18.218;2024-02-28T07:58:51;2.70;;;2.40;;
13443;SDS011;6794;59.218;18.218;2024-02-28T08:01:17;3.60;;;3.30;;
13443;SDS011;6794;59.218;18.218;2024-02-28T08:03:43;3.20;;;2.60;;
13443;SDS011;6794;59.218;18.218;2024-02-28T08:06:10;4.03;;;2.90;;
13443;SDS011;6794;59.218;18.218;2024-02-28T08:08:36;3.13;;;2.50;;
13443;SDS011;6794;59.218;18.218;2024-02-28T08:11:02;2.60;;;2.40;;
13443;SDS011;6794;59.218;18.218;2024-02-28T08:13:28;2.50;;;2.30;;
13443;SDS011;6794;59.218;18.218;2024-02-28T08:15:55;2.40;;;2.13;;
13443;SDS011;6794;59.218;18.218;2024-02-28T08:18:21;3.07;;;2.20;;
13443;SDS011;6794;59.218;18.218;2024-02-28T08:20:47;2.37;;;2.17;;
13443;SDS011;6794;59.218;18.218;2024-02-28T08:23:14;3.63;;;2.57;;
13443;SDS011;6794;59.218;18.218;2024-02-28T08:25:40;3.73;;;2.67;;
13443;SDS011;6794;59.218;18.218;2024-02-28T08:28:06;2.90;;;2.30;;
13443;SDS011;6794;59.218;18.218;2024-02-28T08:30:32;3.10;;;2.80;;
13443;SDS011;6794;59.218;18.218;2024-02-28T08:32:59;2.73;;;2.37;;
13443;SDS011;6794;59.218;18.218;2024-02-28T08:35:25;2.27;;;2.07;;
13443;SDS011;6794;59.218;18.218;2024-02-28T08:37:51;2.57;;;2.30;;
13443;SDS011;6794;59.218;18.218;2024-02-28T08:40:18;3.77;;;2.50;;
13443;SDS011;6794;59.218;18.218;2024-02-28T08:42:44;2.60;;;2.40;;
13443;SDS011;6794;59.218;18.218;2024-02-28T08:45:11;3.13;;;2.50;;
13443;SDS011;6794;59.218;18.218;2024-02-28T08:47:37;2.63;;;2.37;;
13443;SDS011;6794;59.218;18.218;2024-02-28T08:50:03;3.23;;;2.30;;
13443;SDS011;6794;59.218;18.218;2024-02-28T08:52:29;2.87;;;2.50;;
13443;SDS011;6794;59.218;18.218;2024-02-28T08:54:55;2.80;;;2.10;;
13443;SDS011;6794;59.218;18.218;2024-02-28T08:57:22;2.33;;;1.90;;
13443;SDS011;6794;59.218;18.218;2024-02-28T08:59:49;4.15;;;2.17;;
13443;SDS011;6794;59.218;18.218;2024-02-28T09:02:15;2.43;;;2.00;;
13443;SDS011;6794;59.218;18.218;2024-02-28T09:04:41;2.23;;;2.03;;
13443;SDS011;6794;59.218;18.218;2024-02-28T09:07:07;2.40;;;2.20;;
13443;SDS011;6794;59.218;18.218;2024-02-28T09:09:33;2.80;;;2.10;;
13443;SDS011;6794;59.218;18.218;2024-02-28T09:12:03;2.33;;;1.80;;
13443;SDS011;6794;59.218;18.218;2024-02-28T09:14:29;2.40;;;1.90;;
13443;SDS011;6794;59.218;18.218;2024-02-28T09:16:55;2.30;;;2.10;;
13443;SDS011;6794;59.218;18.218;2024-02-28T09:19:28;2.60;;;2.07;;
13443;SDS011;6794;59.218;18.218;2024-02-28T09:21:54;4.20;;;2.20;;
13443;SDS011;6794;59.218;18.218;2024-02-28T09:24:20;2.30;;;2.10;;
13443;SDS011;6794;59.218;18.218;2024-02-28T09:26:46;2.40;;;2.07;;
13443;SDS011;6794;59.218;18.218;2024-02-28T09:29:12;2.10;;;1.90;;
13443;SDS011;6794;59.218;18.218;2024-02-28T09:31:38;3.22;;;2.80;;
13443;SDS011;6794;59.218;18.218;2024-02-28T09:34:04;2.47;;;2.27;;
13443;SDS011;6794;59.218;18.218;2024-02-28T09:36:33;3.83;;;2.07;;
13443;SDS011;6794;59.218;18.218;2024-02-28T09:38:59;3.07;;;2.40;;
13443;SDS011;6794;59.218;18.218;2024-02-28T09:41:25;2.30;;;2.10;;
13443;SDS011;6794;59.218;18.218;2024-02-28T09:43:52;3.30;;;2.00;;
13443;SDS011;6794;59.218;18.218;2024-02-28T09:46:18;2.80;;;2.40;;
13443;SDS011;6794;59.218;18.218;2024-02-28T09:48:44;2.70;;;2.20;;
13443;SDS011;6794;59.218;18.218;2024-02-28T09:51:14;2.73;;;2.20;;
13443;SDS011;6794;59.218;18.218;2024-02-28T09:53:41;3.27;;;2.50;;
13443;SDS011;6794;59.218;18.218;2024-02-28T09:56:07;3.03;;;2.27;;
13443;SDS011;6794;59.218;18.218;2024-02-28T09:58:33;2.80;;;2.50;;
13443;SDS011;6794;59.218;18.218;2024-02-28T10:01:00;3.80;;;3.13;;
13443;SDS011;6794;59.218;18.218;2024-02-28T10:03:28;3.30;;;2.77;;
13443;SDS011;6794;59.218;18.218;2024-02-28T10:05:55;5.40;;;2.90;;
13443;SDS011;6794;59.218;18.218;2024-02-28T10:08:21;3.70;;;3.10;;
13443;SDS011;6794;59.218;18.218;2024-02-28T10:10:48;4.17;;;3.23;;
13443;SDS011;6794;59.218;18.218;2024-02-28T10:13:17;5.63;;;3.30;;
13443;SDS011;6794;59.218;18.218;2024-02-28T10:15:43;3.40;;;2.80;;
13443;SDS011;6794;59.218;18.218;2024-02-28T10:18:10;3.40;;;2.93;;
13443;SDS011;6794;59.218;18.218;2024-02-28T10:20:36;3.10;;;2.60;;
13443;SDS011;6794;59.218;18.218;2024-02-28T10:23:04;5.47;;;3.27;;
13443;SDS011;6794;59.218;18.218;2024-02-28T10:25:30;4.03;;;2.77;;
13443;SDS011;6794;59.218;18.218;2024-02-28T10:28:00;3.93;;;2.93;;
13443;SDS011;6794;59.218;18.218;2024-02-28T10:30:26;3.95;;;3.55;;
13443;SDS011;6794;59.218;18.218;2024-02-28T10:32:52;4.83;;;3.67;;
13443;SDS011;6794;59.218;18.218;2024-02-28T10:35:18;4.13;;;3.20;;
13443;SDS011;6794;59.218;18.218;2024-02-28T10:37:45;3.90;;;3.10;;
13443;SDS011;6794;59.218;18.218;2024-02-28T10:40:13;3.67;;;3.10;;
13443;SDS011;6794;59.218;18.218;2024-02-28T10:42:42;4.77;;;3.27;;
13443;SDS011;6794;59.218;18.218;2024-02-28T10:45:09;3.83;;;2.93;;
13443;SDS011;6794;59.218;18.218;2024-02-28T10:47:37;3.80;;;3.37;;
13443;SDS011;6794;59.218;18.218;2024-02-28T10:50:04;3.60;;;3.20;;
13443;SDS011;6794;59.218;18.218;2024-02-28T10:52:30;5.40;;;3.40;;
13443;SDS011;6794;59.218;18.218;2024-02-28T10:54:58;5.63;;;3.57;;
13443;SDS011;6794;59.218;18.218;2024-02-28T10:57:25;4.23;;;3.40;;
13443;SDS011;6794;59.218;18.218;2024-02-28T10:59:52;4.87;;;3.37;;
13443;SDS011;6794;59.218;18.218;2024-02-28T11:02:19;4.55;;;4.13;;
13443;SDS011;6794;59.218;18.218;2024-02-28T11:04:46;3.73;;;3.37;;
13443;SDS011;6794;59.218;18.218;2024-02-28T11:07:18;5.67;;;3.37;;
13443;SDS011;6794;59.218;18.218;2024-02-28T11:09:45;2.93;;;2.67;;
13443;SDS011;6794;59.218;18.218;2024-02-28T11:12:27;4.00;;;2.90;;
13443;SDS011;6794;59.218;18.218;2024-02-28T11:15:00;3.77;;;2.80;;
13443;SDS011;6794;59.218;18.218;2024-02-28T11:17:27;3.83;;;2.97;;
13443;SDS011;6794;59.218;18.218;2024-02-28T11:19:53;4.57;;;3.37;;
13443;SDS011;6794;59.218;18.218;2024-02-28T11:22:20;3.20;;;2.80;;
13443;SDS011;6794;59.218;18.218;2024-02-28T11:24:47;3.43;;;2.57;;
13443;SDS011;6794;59.218;18.218;2024-02-28T11:27:15;3.70;;;2.97;;
13443;SDS011;6794;59.218;18.218;2024-02-28T11:29:41;4.70;;;2.97;;
13443;SDS011;6794;59.218;18.218;2024-02-28T11:32:07;3.73;;;3.33;;
13443;SDS011;6794;59.218;18.218;2024-02-28T11:34:35;3.10;;;2.67;;
13443;SDS011;6794;59.218;18.218;2024-02-28T11:37:02;3.47;;;2.87;;
13443;SDS011;6794;59.218;18.218;2024-02-28T11:39:28;3.10;;;2.80;;
13443;SDS011;6794;59.218;18.218;2024-02-28T11:42:08;2.83;;;2.53;;
13443;SDS011;6794;59.218;18.218;2024-02-28T11:44:34;2.80;;;2.60;;
13443;SDS011;6794;59.218;18.218;2024-02-28T11:47:00;2.37;;;2.17;;
13443;SDS011;6794;59.218;18.218;2024-02-28T11:49:26;2.53;;;2.33;;
13443;SDS011;6794;59.218;18.218;2024-02-28T11:51:52;2.57;;;2.30;;
13443;SDS011;6794;59.218;18.218;2024-02-28T11:54:18;2.20;;;2.00;;
13443;SDS011;6794;59.218;18.218;2024-02-28T11:56:44;2.87;;;2.30;;
13443;SDS011;6794;59.218;18.218;2024-02-28T11:59:13;3.13;;;2.10;;
13443;SDS011;6794;59.218;18.218;2024-02-28T12:01:42;2.60;;;2.40;;
13443;SDS011;6794;59.218;18.218;2024-02-28T12:04:09;3.17;;;2.10;;
13443;SDS011;6794;59.218;18.218;2024-02-28T12:06:35;1.80;;;1.70;;
13443;SDS011;6794;59.218;18.218;2024-02-28T12:09:08;3.43;;;2.03;;
13443;SDS011;6794;59.218;18.218;2024-02-28T12:11:35;2.90;;;2.37;;
13443;SDS011;6794;59.218;18.218;2024-02-28T12:14:04;2.37;;;2.00;;
13443;SDS011;6794;59.218;18.218;2024-02-28T12:16:33;2.33;;;1.90;;
13443;SDS011;6794;59.218;18.218;2024-02-28T12:19:00;2.40;;;1.90;;
13443;SDS011;6794;59.218;18.218;2024-02-28T12:21:26;2.50;;;1.63;;
13443;SDS011;6794;59.218;18.218;2024-02-28T12:23:52;2.27;;;1.97;;
13443;SDS011;6794;59.218;18.218;2024-02-28T12:26:18;4.03;;;2.70;;
13443;SDS011;6794;59.218;18.218;2024-02-28T12:28:44;2.20;;;2.00;;
13443;SDS011;6794;59.218;18.218;2024-02-28T12:31:10;3.38;;;2.58;;
13443;SDS011;6794;59.218;18.218;2024-02-28T12:33:38;2.50;;;2.30;;
13443;SDS011;6794;59.218;18.218;2024-02-28T12:36:04;6.97;;;2.40;;
13443;SDS011;6794;59.218;18.218;2024-02-28T12:38:30;2.40;;;2.20;;
13443;SDS011;6794;59.218;18.218;2024-02-28T12:40:56;2.00;;;1.90;;
13443;SDS011;6794;59.218;18.218;2024-02-28T12:43:23;2.20;;;1.93;;
13443;SDS011;6794;59.218;18.218;2024-02-28T12:45:50;2.50;;;2.20;;
13443;SDS011;6794;59.218;18.218;2024-02-28T12:48:16;2.77;;;2.10;;
13443;SDS011;6794;59.218;18.218;2024-02-28T12:50:42;2.70;;;2.00;;
13443;SDS011;6794;59.218;18.218;2024-02-28T12:53:08;2.67;;;2.47;;
13443;SDS011;6794;59.218;18.218;2024-02-28T12:55:34;2.30;;;2.10;;
13443;SDS011;6794;59.218;18.218;2024-02-28T12:58:00;2.47;;;2.10;;
13443;SDS011;6794;59.218;18.218;2024-02-28T13:00:29;2.20;;;2.00;;
13443;SDS011;6794;59.218;18.218;2024-02-28T13:02:56;3.07;;;2.30;;
13443;SDS011;6794;59.218;18.218;2024-02-28T13:05:22;3.40;;;2.13;;
13443;SDS011;6794;59.218;18.218;2024-02-28T13:07:48;2.17;;;1.83;;
13443;SDS011;6794;59.218;18.218;2024-02-28T13:10:14;2.40;;;2.20;;
13443;SDS011;6794;59.218;18.218;2024-02-28T13:12:40;2.67;;;2.10;;
13443;SDS011;6794;59.218;18.218;2024-02-28T13:15:06;3.30;;;2.33;;
13443;SDS011;6794;59.218;18.218;2024-02-28T13:17:33;3.30;;;2.70;;
13443;SDS011;6794;59.218;18.218;2024-02-28T13:19:59;2.67;;;2.17;;
13443;SDS011;6794;59.218;18.218;2024-02-28T13:22:25;2.77;;;2.30;;
13443;SDS011;6794;59.218;18.218;2024-02-28T13:24:51;4.53;;;2.80;;
13443;SDS011;6794;59.218;18.218;2024-02-28T13:27:17;2.13;;;1.90;;
13443;SDS011;6794;59.218;18.218;2024-02-28T13:29:43;2.50;;;2.23;;
13443;SDS011;6794;59.218;18.218;2024-02-28T13:32:09;3.45;;;2.50;;
13443;SDS011;6794;59.218;18.218;2024-02-28T13:34:35;2.17;;;1.93;;
13443;SDS011;6794;59.218;18.218;2024-02-28T13:37:01;6.90;;;2.47;;
13443;SDS011;6794;59.218;18.218;2024-02-28T13:39:27;2.30;;;2.00;;
13443;SDS011;6794;59.218;18.218;2024-02-28T13:41:54;2.40;;;2.00;;
13443;SDS011;6794;59.218;18.218;2024-02-28T13:44:20;2.40;;;2.00;;
13443;SDS011;6794;59.218;18.218;2024-02-28T13:46:46;4.30;;;2.27;;
13443;SDS011;6794;59.218;18.218;2024-02-28T13:49:13;2.57;;;1.80;;
13443;SDS011;6794;59.218;18.218;2024-02-28T13:51:39;3.17;;;1.90;;
13443;SDS011;6794;59.218;18.218;2024-02-28T13:54:05;2.30;;;2.10;;
13443;SDS011;6794;59.218;18.218;2024-02-28T13:56:31;3.50;;;1.87;;
13443;SDS011;6794;59.218;18.218;2024-02-28T13:58:58;2.63;;;2.27;;
13443;SDS011;6794;59.218;18.218;2024-02-28T14:01:24;2.58;;;1.80;;
13443;SDS011;6794;59.218;18.218;2024-02-28T14:03:51;3.10;;;2.70;;
13443;SDS011;6794;59.218;18.218;2024-02-28T14:06:17;2.10;;;1.67;;
13443;SDS011;6794;59.218;18.218;2024-02-28T14:08:43;2.80;;;1.57;;
13443;SDS011;6794;59.218;18.218;2024-02-28T14:11:09;1.53;;;1.43;;
13443;SDS011;6794;59.218;18.218;2024-02-28T14:13:35;2.03;;;1.70;;
13443;SDS011;6794;59.218;18.218;2024-02-28T14:16:04;2.67;;;1.70;;
13443;SDS011;6794;59.218;18.218;2024-02-28T14:18:30;2.27;;;1.63;;
13443;SDS011;6794;59.218;18.218;2024-02-28T14:20:56;2.40;;;1.67;;
13443;SDS011;6794;59.218;18.218;2024-02-28T14:23:22;2.23;;;1.90;;
13443;SDS011;6794;59.218;18.218;2024-02-28T14:25:48;2.00;;;1.77;;
13443;SDS011;6794;59.218;18.218;2024-02-28T14:28:14;2.60;;;1.67;;
13443;SDS011;6794;59.218;18.218;2024-02-28T14:30:42;1.90;;;1.77;;
13443;SDS011;6794;59.218;18.218;2024-02-28T14:33:08;2.35;;;1.90;;
13443;SDS011;6794;59.218;18.218;2024-02-28T14:35:34;3.77;;;1.90;;
13443;SDS011;6794;59.218;18.218;2024-02-28T14:38:04;1.73;;;1.57;;
13443;SDS011;6794;59.218;18.218;2024-02-28T14:40:31;2.30;;;2.00;;
13443;SDS011;6794;59.218;18.218;2024-02-28T14:42:57;2.03;;;1.70;;